sensor_id;sensor_type;location;lat;lon;timestamp;P1;durP1;ratioP1;P2;durP2;ratioP2
41739;SDS011;27422;52.444;13.300;2023-05-14T00:01:43;10.02;;;6.13;;
41739;SDS011;27422;52.444;13.300;2023-05-14T00:04:10;8.40;;;5.40;;
41739;SDS011;27422;52.444;13.300;2023-05-14T00:06:35;9.13;;;5.60;;
41739;SDS011;27422;52.444;13.300;2023-05-14T00:09:01;10.65;;;5.88;;
41739;SDS011;27422;52.444;13.300;2023-05-14T00:11:26;9.15;;;6.03;;
41739;SDS011;27422;52.444;13.300;2023-05-14T00:13:52;9.35;;;5.82;;
41739;SDS011;27422;52.444;13.300;2023-05-14T00:16:17;8.40;;;5.60;;
41739;SDS011;27422;52.444;13.300;2023-05-14T00:18:42;10.73;;;6.82;;
41739;SDS011;27422;52.444;13.300;2023-05-14T00:21:08;9.75;;;5.93;;
41739;SDS011;27422;52.444;13.300;2023-05-14T00:23:33;12.13;;;6.07;;
41739;SDS011;27422;52.444;13.300;2023-05-14T00:25:58;11.38;;;6.18;;
41739;SDS011;27422;52.444;13.300;2023-05-14T00:28:24;9.75;;;6.07;;
41739;SDS011;27422;52.444;13.300;2023-05-14T00:30:49;9.63;;;5.88;;
41739;SDS011;27422;52.444;13.300;2023-05-14T00:33:15;8.60;;;5.85;;
41739;SDS011;27422;52.444;13.300;2023-05-14T00:35:40;10.98;;;5.85;;
41739;SDS011;27422;52.444;13.300;2023-05-14T00:38:06;8.73;;;5.88;;
41739;SDS011;27422;52.444;13.300;2023-05-14T00:40:31;8.85;;;5.80;;
41739;SDS011;27422;52.444;13.300;2023-05-14T00:42:56;9.40;;;6.50;;
41739;SDS011;27422;52.444;13.300;2023-05-14T00:45:22;9.18;;;6.00;;
41739;SDS011;27422;52.444;13.300;2023-05-14T00:47:47;8.93;;;6.25;;
41739;SDS011;27422;52.444;13.300;2023-05-14T00:50:13;8.55;;;5.80;;
41739;SDS011;27422;52.444;13.300;2023-05-14T00:52:40;9.63;;;6.57;;
41739;SDS011;27422;52.444;13.300;2023-05-14T00:55:06;8.88;;;6.07;;
41739;SDS011;27422;52.444;13.300;2023-05-14T00:57:32;9.93;;;6.32;;
41739;SDS011;27422;52.444;13.300;2023-05-14T00:59:58;10.27;;;6.10;;
41739;SDS011;27422;52.444;13.300;2023-05-14T01:02:24;9.50;;;6.32;;
41739;SDS011;27422;52.444;13.300;2023-05-14T01:04:50;10.88;;;6.07;;
41739;SDS011;27422;52.444;13.300;2023-05-14T01:09:52;11.68;;;6.03;;
41739;SDS011;27422;52.444;13.300;2023-05-14T01:14:54;10.82;;;6.32;;
41739;SDS011;27422;52.444;13.300;2023-05-14T01:17:24;8.23;;;5.68;;
41739;SDS011;27422;52.444;13.300;2023-05-14T01:19:51;9.75;;;5.63;;
41739;SDS011;27422;52.444;13.300;2023-05-14T01:22:17;10.35;;;5.68;;
41739;SDS011;27422;52.444;13.300;2023-05-14T01:24:42;8.15;;;5.78;;
41739;SDS011;27422;52.444;13.300;2023-05-14T01:29:51;8.10;;;5.22;;
41739;SDS011;27422;52.444;13.300;2023-05-14T01:32:26;8.73;;;5.85;;
41739;SDS011;27422;52.444;13.300;2023-05-14T01:34:52;9.23;;;5.28;;
41739;SDS011;27422;52.444;13.300;2023-05-14T01:37:20;7.20;;;5.32;;
41739;SDS011;27422;52.444;13.300;2023-05-14T01:39:45;8.63;;;5.32;;
41739;SDS011;27422;52.444;13.300;2023-05-14T01:42:11;10.02;;;5.63;;
41739;SDS011;27422;52.444;13.300;2023-05-14T01:44:37;7.47;;;5.28;;
41739;SDS011;27422;52.444;13.300;2023-05-14T01:47:02;6.88;;;4.85;;
41739;SDS011;27422;52.444;13.300;2023-05-14T01:49:27;8.68;;;5.50;;
41739;SDS011;27422;52.444;13.300;2023-05-14T01:51:53;8.15;;;5.22;;
41739;SDS011;27422;52.444;13.300;2023-05-14T01:54:18;8.60;;;5.30;;
41739;SDS011;27422;52.444;13.300;2023-05-14T01:56:44;7.05;;;4.88;;
41739;SDS011;27422;52.444;13.300;2023-05-14T01:59:09;8.07;;;5.00;;
41739;SDS011;27422;52.444;13.300;2023-05-14T02:01:34;7.15;;;4.72;;
41739;SDS011;27422;52.444;13.300;2023-05-14T02:04:00;7.95;;;5.40;;
41739;SDS011;27422;52.444;13.300;2023-05-14T02:06:25;7.78;;;5.25;;
41739;SDS011;27422;52.444;13.300;2023-05-14T02:08:51;8.48;;;5.10;;
41739;SDS011;27422;52.444;13.300;2023-05-14T02:11:31;8.40;;;4.90;;
41739;SDS011;27422;52.444;13.300;2023-05-14T02:13:57;8.43;;;5.18;;
41739;SDS011;27422;52.444;13.300;2023-05-14T02:16:22;8.15;;;4.85;;
41739;SDS011;27422;52.444;13.300;2023-05-14T02:18:47;7.07;;;4.47;;
41739;SDS011;27422;52.444;13.300;2023-05-14T02:21:13;7.93;;;4.80;;
41739;SDS011;27422;52.444;13.300;2023-05-14T02:23:38;7.22;;;4.63;;
41739;SDS011;27422;52.444;13.300;2023-05-14T02:26:03;7.05;;;4.60;;
41739;SDS011;27422;52.444;13.300;2023-05-14T02:28:29;8.57;;;4.60;;
41739;SDS011;27422;52.444;13.300;2023-05-14T02:30:58;7.25;;;4.85;;
41739;SDS011;27422;52.444;13.300;2023-05-14T02:33:24;8.30;;;4.70;;
41739;SDS011;27422;52.444;13.300;2023-05-14T02:35:49;6.95;;;4.60;;
41739;SDS011;27422;52.444;13.300;2023-05-14T02:38:15;9.27;;;4.72;;
41739;SDS011;27422;52.444;13.300;2023-05-14T02:40:40;7.22;;;4.53;;
41739;SDS011;27422;52.444;13.300;2023-05-14T02:43:06;5.95;;;4.30;;
41739;SDS011;27422;52.444;13.300;2023-05-14T02:45:31;7.63;;;4.60;;
41739;SDS011;27422;52.444;13.300;2023-05-14T02:47:56;8.63;;;4.78;;
41739;SDS011;27422;52.444;13.300;2023-05-14T02:50:22;7.95;;;4.55;;
41739;SDS011;27422;52.444;13.300;2023-05-14T02:52:47;6.97;;;4.22;;
41739;SDS011;27422;52.444;13.300;2023-05-14T02:55:12;7.60;;;4.60;;
41739;SDS011;27422;52.444;13.300;2023-05-14T02:57:38;6.70;;;4.30;;
41739;SDS011;27422;52.444;13.300;2023-05-14T03:00:03;6.75;;;4.28;;
41739;SDS011;27422;52.444;13.300;2023-05-14T03:02:30;6.93;;;4.57;;
41739;SDS011;27422;52.444;13.300;2023-05-14T03:04:55;8.35;;;4.50;;
41739;SDS011;27422;52.444;13.300;2023-05-14T03:07:20;7.95;;;4.80;;
41739;SDS011;27422;52.444;13.300;2023-05-14T03:09:46;6.50;;;3.90;;
41739;SDS011;27422;52.444;13.300;2023-05-14T03:12:11;7.50;;;4.35;;
41739;SDS011;27422;52.444;13.300;2023-05-14T03:14:38;6.87;;;4.23;;
41739;SDS011;27422;52.444;13.300;2023-05-14T03:17:03;9.07;;;4.25;;
41739;SDS011;27422;52.444;13.300;2023-05-14T03:19:29;6.32;;;4.28;;
41739;SDS011;27422;52.444;13.300;2023-05-14T03:21:54;7.45;;;4.40;;
41739;SDS011;27422;52.444;13.300;2023-05-14T03:24:20;6.22;;;4.13;;
41739;SDS011;27422;52.444;13.300;2023-05-14T03:26:45;7.35;;;4.57;;
41739;SDS011;27422;52.444;13.300;2023-05-14T03:29:10;8.18;;;4.43;;
41739;SDS011;27422;52.444;13.300;2023-05-14T03:31:36;8.13;;;4.10;;
41739;SDS011;27422;52.444;13.300;2023-05-14T03:34:01;6.38;;;4.30;;
41739;SDS011;27422;52.444;13.300;2023-05-14T03:36:26;7.40;;;4.03;;
41739;SDS011;27422;52.444;13.300;2023-05-14T03:38:52;9.40;;;4.10;;
41739;SDS011;27422;52.444;13.300;2023-05-14T03:41:17;6.40;;;4.30;;
41739;SDS011;27422;52.444;13.300;2023-05-14T03:43:44;7.40;;;3.92;;
41739;SDS011;27422;52.444;13.300;2023-05-14T03:46:09;6.38;;;3.95;;
41739;SDS011;27422;52.444;13.300;2023-05-14T03:48:34;5.88;;;4.07;;
41739;SDS011;27422;52.444;13.300;2023-05-14T03:51:00;7.43;;;4.03;;
41739;SDS011;27422;52.444;13.300;2023-05-14T03:53:25;8.00;;;4.00;;
41739;SDS011;27422;52.444;13.300;2023-05-14T03:55:50;5.97;;;3.80;;
41739;SDS011;27422;52.444;13.300;2023-05-14T03:58:16;9.00;;;3.85;;
41739;SDS011;27422;52.444;13.300;2023-05-14T04:00:41;7.57;;;4.15;;
41739;SDS011;27422;52.444;13.300;2023-05-14T04:03:07;6.30;;;4.40;;
41739;SDS011;27422;52.444;13.300;2023-05-14T04:05:33;6.88;;;4.00;;
41739;SDS011;27422;52.444;13.300;2023-05-14T04:07:59;8.18;;;4.28;;
41739;SDS011;27422;52.444;13.300;2023-05-14T04:10:25;6.72;;;4.28;;
41739;SDS011;27422;52.444;13.300;2023-05-14T04:12:51;10.48;;;4.60;;
41739;SDS011;27422;52.444;13.300;2023-05-14T04:15:16;7.15;;;3.97;;
41739;SDS011;27422;52.444;13.300;2023-05-14T04:17:41;7.13;;;4.43;;
41739;SDS011;27422;52.444;13.300;2023-05-14T04:20:07;6.75;;;4.53;;
41739;SDS011;27422;52.444;13.300;2023-05-14T04:22:33;6.13;;;4.32;;
41739;SDS011;27422;52.444;13.300;2023-05-14T04:24:58;7.55;;;4.70;;
41739;SDS011;27422;52.444;13.300;2023-05-14T04:27:23;8.43;;;4.30;;
41739;SDS011;27422;52.444;13.300;2023-05-14T04:29:49;7.40;;;4.70;;
41739;SDS011;27422;52.444;13.300;2023-05-14T04:32:14;9.05;;;4.78;;
41739;SDS011;27422;52.444;13.300;2023-05-14T04:34:40;7.95;;;4.90;;
41739;SDS011;27422;52.444;13.300;2023-05-14T04:37:05;6.68;;;4.43;;
41739;SDS011;27422;52.444;13.300;2023-05-14T04:39:31;7.40;;;4.55;;
41739;SDS011;27422;52.444;13.300;2023-05-14T04:41:56;7.38;;;4.90;;
41739;SDS011;27422;52.444;13.300;2023-05-14T04:44:22;7.22;;;4.40;;
41739;SDS011;27422;52.444;13.300;2023-05-14T04:46:47;8.02;;;5.03;;
41739;SDS011;27422;52.444;13.300;2023-05-14T04:49:12;7.93;;;4.55;;
41739;SDS011;27422;52.444;13.300;2023-05-14T04:51:38;6.00;;;4.20;;
41739;SDS011;27422;52.444;13.300;2023-05-14T04:54:03;7.95;;;4.50;;
41739;SDS011;27422;52.444;13.300;2023-05-14T04:56:28;7.28;;;4.15;;
41739;SDS011;27422;52.444;13.300;2023-05-14T04:58:54;9.52;;;4.55;;
41739;SDS011;27422;52.444;13.300;2023-05-14T05:01:19;7.80;;;3.88;;
41739;SDS011;27422;52.444;13.300;2023-05-14T05:03:46;7.28;;;4.40;;
41739;SDS011;27422;52.444;13.300;2023-05-14T05:06:11;6.85;;;4.20;;
41739;SDS011;27422;52.444;13.300;2023-05-14T05:08:36;5.68;;;3.88;;
41739;SDS011;27422;52.444;13.300;2023-05-14T05:11:02;7.85;;;4.47;;
41739;SDS011;27422;52.444;13.300;2023-05-14T05:13:28;8.55;;;4.40;;
41739;SDS011;27422;52.444;13.300;2023-05-14T05:15:53;7.50;;;4.72;;
41739;SDS011;27422;52.444;13.300;2023-05-14T05:18:19;7.45;;;4.00;;
41739;SDS011;27422;52.444;13.300;2023-05-14T05:20:44;6.97;;;4.28;;
41739;SDS011;27422;52.444;13.300;2023-05-14T05:23:09;7.10;;;4.18;;
41739;SDS011;27422;52.444;13.300;2023-05-14T05:25:35;6.90;;;4.05;;
41739;SDS011;27422;52.444;13.300;2023-05-14T05:28:00;8.32;;;3.92;;
41739;SDS011;27422;52.444;13.300;2023-05-14T05:30:26;6.82;;;4.28;;
41739;SDS011;27422;52.444;13.300;2023-05-14T05:32:51;8.48;;;4.38;;
41739;SDS011;27422;52.444;13.300;2023-05-14T05:35:16;6.90;;;4.35;;
41739;SDS011;27422;52.444;13.300;2023-05-14T05:37:42;7.00;;;4.50;;
41739;SDS011;27422;52.444;13.300;2023-05-14T05:40:09;5.93;;;3.65;;
41739;SDS011;27422;52.444;13.300;2023-05-14T05:42:34;6.93;;;3.80;;
41739;SDS011;27422;52.444;13.300;2023-05-14T05:45:00;7.35;;;4.18;;
41739;SDS011;27422;52.444;13.300;2023-05-14T05:47:25;6.78;;;4.05;;
41739;SDS011;27422;52.444;13.300;2023-05-14T05:49:51;6.80;;;4.07;;
41739;SDS011;27422;52.444;13.300;2023-05-14T05:52:18;6.73;;;4.40;;
41739;SDS011;27422;52.444;13.300;2023-05-14T05:54:43;7.32;;;4.72;;
41739;SDS011;27422;52.444;13.300;2023-05-14T05:57:08;9.48;;;4.70;;
41739;SDS011;27422;52.444;13.300;2023-05-14T05:59:34;6.90;;;4.20;;
41739;SDS011;27422;52.444;13.300;2023-05-14T06:02:00;6.70;;;4.25;;
41739;SDS011;27422;52.444;13.300;2023-05-14T06:04:25;7.25;;;4.32;;
41739;SDS011;27422;52.444;13.300;2023-05-14T06:06:51;9.27;;;4.80;;
41739;SDS011;27422;52.444;13.300;2023-05-14T06:09:16;6.90;;;4.40;;
41739;SDS011;27422;52.444;13.300;2023-05-14T06:11:41;7.38;;;4.25;;
41739;SDS011;27422;52.444;13.300;2023-05-14T06:14:07;7.75;;;3.95;;
41739;SDS011;27422;52.444;13.300;2023-05-14T06:16:32;8.95;;;3.97;;
41739;SDS011;27422;52.444;13.300;2023-05-14T06:18:57;6.95;;;4.30;;
41739;SDS011;27422;52.444;13.300;2023-05-14T06:21:23;7.40;;;4.30;;
41739;SDS011;27422;52.444;13.300;2023-05-14T06:23:48;6.32;;;3.90;;
41739;SDS011;27422;52.444;13.300;2023-05-14T06:26:14;6.13;;;3.90;;
41739;SDS011;27422;52.444;13.300;2023-05-14T06:28:39;5.80;;;3.80;;
41739;SDS011;27422;52.444;13.300;2023-05-14T06:31:04;5.93;;;3.53;;
41739;SDS011;27422;52.444;13.300;2023-05-14T06:33:30;6.55;;;4.15;;
41739;SDS011;27422;52.444;13.300;2023-05-14T06:35:58;6.40;;;4.30;;
41739;SDS011;27422;52.444;13.300;2023-05-14T06:38:25;8.93;;;4.78;;
41739;SDS011;27422;52.444;13.300;2023-05-14T06:40:50;8.40;;;3.92;;
41739;SDS011;27422;52.444;13.300;2023-05-14T06:43:17;7.18;;;4.10;;
41739;SDS011;27422;52.444;13.300;2023-05-14T06:45:42;6.53;;;3.72;;
41739;SDS011;27422;52.444;13.300;2023-05-14T06:48:08;8.73;;;3.75;;
41739;SDS011;27422;52.444;13.300;2023-05-14T06:50:34;5.20;;;3.42;;
41739;SDS011;27422;52.444;13.300;2023-05-14T06:52:59;5.30;;;3.33;;
41739;SDS011;27422;52.444;13.300;2023-05-14T06:55:25;6.03;;;3.30;;
41739;SDS011;27422;52.444;13.300;2023-05-14T06:57:50;6.30;;;3.40;;
41739;SDS011;27422;52.444;13.300;2023-05-14T07:00:16;5.72;;;3.28;;
41739;SDS011;27422;52.444;13.300;2023-05-14T07:02:41;8.00;;;3.70;;
41739;SDS011;27422;52.444;13.300;2023-05-14T07:05:07;5.97;;;3.38;;
41739;SDS011;27422;52.444;13.300;2023-05-14T07:07:33;5.72;;;3.60;;
41739;SDS011;27422;52.444;13.300;2023-05-14T07:09:58;6.25;;;3.30;;
41739;SDS011;27422;52.444;13.300;2023-05-14T07:12:23;6.45;;;3.28;;
41739;SDS011;27422;52.444;13.300;2023-05-14T07:14:49;5.93;;;3.53;;
41739;SDS011;27422;52.444;13.300;2023-05-14T07:17:15;7.00;;;3.25;;
41739;SDS011;27422;52.444;13.300;2023-05-14T07:19:40;5.15;;;2.83;;
41739;SDS011;27422;52.444;13.300;2023-05-14T07:22:05;4.88;;;3.17;;
41739;SDS011;27422;52.444;13.300;2023-05-14T07:24:31;7.32;;;3.03;;
41739;SDS011;27422;52.444;13.300;2023-05-14T07:26:56;4.65;;;2.83;;
41739;SDS011;27422;52.444;13.300;2023-05-14T07:29:22;5.18;;;2.80;;
41739;SDS011;27422;52.444;13.300;2023-05-14T07:31:49;4.97;;;2.85;;
41739;SDS011;27422;52.444;13.300;2023-05-14T07:34:15;7.25;;;2.95;;
41739;SDS011;27422;52.444;13.300;2023-05-14T07:36:40;6.30;;;2.85;;
41739;SDS011;27422;52.444;13.300;2023-05-14T07:39:06;7.13;;;3.40;;
41739;SDS011;27422;52.444;13.300;2023-05-14T07:41:31;4.03;;;2.40;;
41739;SDS011;27422;52.444;13.300;2023-05-14T07:43:57;4.75;;;2.65;;
41739;SDS011;27422;52.444;13.300;2023-05-14T07:46:22;4.97;;;2.60;;
41739;SDS011;27422;52.444;13.300;2023-05-14T07:48:49;4.57;;;2.15;;
41739;SDS011;27422;52.444;13.300;2023-05-14T07:51:15;4.25;;;2.20;;
41739;SDS011;27422;52.444;13.300;2023-05-14T07:53:41;4.22;;;2.00;;
41739;SDS011;27422;52.444;13.300;2023-05-14T07:56:07;5.00;;;2.30;;
41739;SDS011;27422;52.444;13.300;2023-05-14T07:58:32;4.22;;;2.20;;
41739;SDS011;27422;52.444;13.300;2023-05-14T08:00:59;4.10;;;2.30;;
41739;SDS011;27422;52.444;13.300;2023-05-14T08:03:25;5.32;;;2.20;;
41739;SDS011;27422;52.444;13.300;2023-05-14T08:05:50;4.78;;;2.47;;
41739;SDS011;27422;52.444;13.300;2023-05-14T08:08:16;4.40;;;2.17;;
41739;SDS011;27422;52.444;13.300;2023-05-14T08:10:42;4.30;;;2.22;;
41739;SDS011;27422;52.444;13.300;2023-05-14T08:13:07;3.88;;;2.00;;
41739;SDS011;27422;52.444;13.300;2023-05-14T08:15:32;4.57;;;2.05;;
41739;SDS011;27422;52.444;13.300;2023-05-14T08:17:58;3.58;;;2.00;;
41739;SDS011;27422;52.444;13.300;2023-05-14T08:20:28;3.85;;;2.22;;
41739;SDS011;27422;52.444;13.300;2023-05-14T08:22:55;6.55;;;2.45;;
41739;SDS011;27422;52.444;13.300;2023-05-14T08:25:21;4.13;;;2.30;;
41739;SDS011;27422;52.444;13.300;2023-05-14T08:27:46;5.15;;;2.17;;
41739;SDS011;27422;52.444;13.300;2023-05-14T08:30:12;3.92;;;2.22;;
41739;SDS011;27422;52.444;13.300;2023-05-14T08:32:37;4.18;;;2.05;;
41739;SDS011;27422;52.444;13.300;2023-05-14T08:35:03;4.80;;;2.10;;
41739;SDS011;27422;52.444;13.300;2023-05-14T08:37:29;4.20;;;2.10;;
41739;SDS011;27422;52.444;13.300;2023-05-14T08:39:54;3.63;;;2.10;;
41739;SDS011;27422;52.444;13.300;2023-05-14T08:42:20;4.45;;;2.30;;
41739;SDS011;27422;52.444;13.300;2023-05-14T08:44:49;5.28;;;2.35;;
41739;SDS011;27422;52.444;13.300;2023-05-14T08:47:17;3.30;;;1.98;;
41739;SDS011;27422;52.444;13.300;2023-05-14T08:49:46;4.03;;;2.00;;
41739;SDS011;27422;52.444;13.300;2023-05-14T08:52:13;6.70;;;2.40;;
41739;SDS011;27422;52.444;13.300;2023-05-14T08:54:40;5.38;;;1.90;;
41739;SDS011;27422;52.444;13.300;2023-05-14T08:57:07;4.38;;;2.30;;
41739;SDS011;27422;52.444;13.300;2023-05-14T08:59:33;5.25;;;2.30;;
41739;SDS011;27422;52.444;13.300;2023-05-14T09:02:00;4.20;;;2.03;;
41739;SDS011;27422;52.444;13.300;2023-05-14T09:04:25;7.50;;;2.17;;
41739;SDS011;27422;52.444;13.300;2023-05-14T09:06:52;4.25;;;1.90;;
41739;SDS011;27422;52.444;13.300;2023-05-14T09:09:18;5.20;;;2.03;;
41739;SDS011;27422;52.444;13.300;2023-05-14T09:11:47;3.70;;;1.98;;
41739;SDS011;27422;52.444;13.300;2023-05-14T09:14:13;5.55;;;1.88;;
41739;SDS011;27422;52.444;13.300;2023-05-14T09:16:39;4.75;;;2.08;;
41739;SDS011;27422;52.444;13.300;2023-05-14T09:19:06;6.25;;;1.83;;
41739;SDS011;27422;52.444;13.300;2023-05-14T09:21:32;3.75;;;2.05;;
41739;SDS011;27422;52.444;13.300;2023-05-14T09:23:58;4.40;;;1.90;;
41739;SDS011;27422;52.444;13.300;2023-05-14T09:26:24;3.47;;;1.73;;
41739;SDS011;27422;52.444;13.300;2023-05-14T09:28:59;3.00;;;1.60;;
41739;SDS011;27422;52.444;13.300;2023-05-14T09:31:26;4.10;;;1.80;;
41739;SDS011;27422;52.444;13.300;2023-05-14T09:33:52;3.38;;;1.70;;
41739;SDS011;27422;52.444;13.300;2023-05-14T09:36:17;4.03;;;2.00;;
41739;SDS011;27422;52.444;13.300;2023-05-14T09:38:43;2.85;;;1.40;;
41739;SDS011;27422;52.444;13.300;2023-05-14T09:41:09;12.52;;;2.28;;
41739;SDS011;27422;52.444;13.300;2023-05-14T09:43:34;3.88;;;1.52;;
41739;SDS011;27422;52.444;13.300;2023-05-14T09:46:00;3.13;;;1.70;;
41739;SDS011;27422;52.444;13.300;2023-05-14T09:48:25;3.45;;;1.80;;
41739;SDS011;27422;52.444;13.300;2023-05-14T09:50:51;4.00;;;1.75;;
41739;SDS011;27422;52.444;13.300;2023-05-14T09:53:16;4.65;;;1.80;;
41739;SDS011;27422;52.444;13.300;2023-05-14T09:55:42;3.50;;;1.48;;
41739;SDS011;27422;52.444;13.300;2023-05-14T09:58:08;6.10;;;2.10;;
41739;SDS011;27422;52.444;13.300;2023-05-14T10:00:34;3.80;;;1.90;;
41739;SDS011;27422;52.444;13.300;2023-05-14T10:03:03;4.47;;;1.70;;
41739;SDS011;27422;52.444;13.300;2023-05-14T10:05:34;3.15;;;1.73;;
41739;SDS011;27422;52.444;13.300;2023-05-14T10:08:01;3.55;;;2.17;;
41739;SDS011;27422;52.444;13.300;2023-05-14T10:10:31;4.85;;;1.90;;
41739;SDS011;27422;52.444;13.300;2023-05-14T10:12:57;5.82;;;2.10;;
41739;SDS011;27422;52.444;13.300;2023-05-14T10:18:15;4.90;;;2.22;;
41739;SDS011;27422;52.444;13.300;2023-05-14T10:20:42;3.53;;;2.05;;
41739;SDS011;27422;52.444;13.300;2023-05-14T10:23:08;3.88;;;2.15;;
41739;SDS011;27422;52.444;13.300;2023-05-14T10:25:34;5.38;;;2.20;;
41739;SDS011;27422;52.444;13.300;2023-05-14T10:28:00;5.40;;;2.72;;
41739;SDS011;27422;52.444;13.300;2023-05-14T10:30:26;8.15;;;2.63;;
41739;SDS011;27422;52.444;13.300;2023-05-14T10:33:07;5.13;;;2.80;;
41739;SDS011;27422;52.444;13.300;2023-05-14T10:38:21;5.55;;;2.20;;
41739;SDS011;27422;52.444;13.300;2023-05-14T10:40:56;5.53;;;2.25;;
41739;SDS011;27422;52.444;13.300;2023-05-14T10:43:25;4.13;;;2.22;;
41739;SDS011;27422;52.444;13.300;2023-05-14T10:45:55;3.63;;;2.20;;
41739;SDS011;27422;52.444;13.300;2023-05-14T10:48:21;5.70;;;1.95;;
41739;SDS011;27422;52.444;13.300;2023-05-14T10:50:47;4.93;;;2.05;;
41739;SDS011;27422;52.444;13.300;2023-05-14T10:53:13;3.93;;;2.00;;
41739;SDS011;27422;52.444;13.300;2023-05-14T10:55:40;3.92;;;2.30;;
41739;SDS011;27422;52.444;13.300;2023-05-14T10:58:06;4.28;;;2.40;;
41739;SDS011;27422;52.444;13.300;2023-05-14T11:00:33;6.43;;;2.35;;
41739;SDS011;27422;52.444;13.300;2023-05-14T11:03:02;4.30;;;1.90;;
41739;SDS011;27422;52.444;13.300;2023-05-14T11:05:28;4.63;;;2.10;;
41739;SDS011;27422;52.444;13.300;2023-05-14T11:07:54;4.07;;;2.05;;
41739;SDS011;27422;52.444;13.300;2023-05-14T11:10:21;6.03;;;2.25;;
41739;SDS011;27422;52.444;13.300;2023-05-14T11:12:47;4.18;;;2.28;;
41739;SDS011;27422;52.444;13.300;2023-05-14T11:15:15;4.45;;;2.05;;
41739;SDS011;27422;52.444;13.300;2023-05-14T11:17:42;5.00;;;2.17;;
41739;SDS011;27422;52.444;13.300;2023-05-14T11:20:09;4.80;;;2.57;;
41739;SDS011;27422;52.444;13.300;2023-05-14T11:22:35;4.33;;;2.20;;
41739;SDS011;27422;52.444;13.300;2023-05-14T11:25:01;5.47;;;2.20;;
41739;SDS011;27422;52.444;13.300;2023-05-14T11:27:27;9.13;;;2.00;;
41739;SDS011;27422;52.444;13.300;2023-05-14T11:29:53;4.75;;;2.20;;
41739;SDS011;27422;52.444;13.300;2023-05-14T11:32:19;4.15;;;2.25;;
41739;SDS011;27422;52.444;13.300;2023-05-14T11:34:45;4.57;;;2.22;;
41739;SDS011;27422;52.444;13.300;2023-05-14T11:37:13;6.68;;;2.20;;
41739;SDS011;27422;52.444;13.300;2023-05-14T11:39:46;4.03;;;2.50;;
41739;SDS011;27422;52.444;13.300;2023-05-14T11:42:13;4.78;;;2.08;;
41739;SDS011;27422;52.444;13.300;2023-05-14T11:47:08;4.78;;;2.00;;
41739;SDS011;27422;52.444;13.300;2023-05-14T11:49:34;6.55;;;2.75;;
41739;SDS011;27422;52.444;13.300;2023-05-14T11:52:02;6.20;;;2.35;;
41739;SDS011;27422;52.444;13.300;2023-05-14T11:54:31;5.63;;;2.50;;
41739;SDS011;27422;52.444;13.300;2023-05-14T11:56:58;4.95;;;2.20;;
41739;SDS011;27422;52.444;13.300;2023-05-14T11:59:28;3.63;;;2.00;;
41739;SDS011;27422;52.444;13.300;2023-05-14T12:01:55;3.55;;;2.15;;
41739;SDS011;27422;52.444;13.300;2023-05-14T12:04:21;3.85;;;2.13;;
41739;SDS011;27422;52.444;13.300;2023-05-14T12:06:47;7.60;;;2.55;;
41739;SDS011;27422;52.444;13.300;2023-05-14T12:09:20;5.00;;;2.10;;
41739;SDS011;27422;52.444;13.300;2023-05-14T12:11:46;4.45;;;2.50;;
41739;SDS011;27422;52.444;13.300;2023-05-14T12:14:17;4.70;;;2.25;;
41739;SDS011;27422;52.444;13.300;2023-05-14T12:16:44;7.50;;;2.35;;
41739;SDS011;27422;52.444;13.300;2023-05-14T12:19:11;4.15;;;2.17;;
41739;SDS011;27422;52.444;13.300;2023-05-14T12:21:38;5.97;;;2.38;;
41739;SDS011;27422;52.444;13.300;2023-05-14T12:24:08;4.75;;;2.13;;
41739;SDS011;27422;52.444;13.300;2023-05-14T12:26:34;4.72;;;2.35;;
41739;SDS011;27422;52.444;13.300;2023-05-14T12:29:00;3.60;;;2.20;;
41739;SDS011;27422;52.444;13.300;2023-05-14T12:31:30;4.18;;;2.10;;
41739;SDS011;27422;52.444;13.300;2023-05-14T12:33:56;6.28;;;2.30;;
41739;SDS011;27422;52.444;13.300;2023-05-14T12:36:22;4.97;;;2.30;;
41739;SDS011;27422;52.444;13.300;2023-05-14T12:38:48;4.97;;;2.13;;
41739;SDS011;27422;52.444;13.300;2023-05-14T12:41:14;4.63;;;2.25;;
41739;SDS011;27422;52.444;13.300;2023-05-14T12:43:41;3.35;;;1.95;;
41739;SDS011;27422;52.444;13.300;2023-05-14T12:48:32;3.35;;;1.90;;
41739;SDS011;27422;52.444;13.300;2023-05-14T12:50:57;4.07;;;2.15;;
41739;SDS011;27422;52.444;13.300;2023-05-14T12:53:23;7.40;;;2.30;;
41739;SDS011;27422;52.444;13.300;2023-05-14T12:55:48;3.50;;;2.15;;
41739;SDS011;27422;52.444;13.300;2023-05-14T12:58:14;4.55;;;2.00;;
41739;SDS011;27422;52.444;13.300;2023-05-14T13:00:40;5.22;;;2.20;;
41739;SDS011;27422;52.444;13.300;2023-05-14T13:03:05;5.05;;;2.10;;
41739;SDS011;27422;52.444;13.300;2023-05-14T13:05:31;5.70;;;2.20;;
41739;SDS011;27422;52.444;13.300;2023-05-14T13:07:57;4.80;;;2.20;;
41739;SDS011;27422;52.444;13.300;2023-05-14T13:10:23;4.22;;;2.20;;
41739;SDS011;27422;52.444;13.300;2023-05-14T13:12:48;4.88;;;2.20;;
41739;SDS011;27422;52.444;13.300;2023-05-14T13:17:41;4.18;;;2.03;;
41739;SDS011;27422;52.444;13.300;2023-05-14T13:20:07;6.05;;;2.08;;
41739;SDS011;27422;52.444;13.300;2023-05-14T13:22:33;4.03;;;2.35;;
41739;SDS011;27422;52.444;13.300;2023-05-14T13:24:58;9.52;;;2.35;;
41739;SDS011;27422;52.444;13.300;2023-05-14T13:27:24;3.67;;;1.98;;
41739;SDS011;27422;52.444;13.300;2023-05-14T13:29:49;4.00;;;2.20;;
41739;SDS011;27422;52.444;13.300;2023-05-14T13:32:15;4.05;;;2.33;;
41739;SDS011;27422;52.444;13.300;2023-05-14T13:34:40;4.43;;;2.20;;
41739;SDS011;27422;52.444;13.300;2023-05-14T13:37:06;5.38;;;2.40;;
41739;SDS011;27422;52.444;13.300;2023-05-14T13:39:32;3.55;;;1.90;;
41739;SDS011;27422;52.444;13.300;2023-05-14T13:41:57;5.35;;;1.90;;
41739;SDS011;27422;52.444;13.300;2023-05-14T13:44:22;4.90;;;2.28;;
41739;SDS011;27422;52.444;13.300;2023-05-14T13:46:48;6.63;;;2.05;;
41739;SDS011;27422;52.444;13.300;2023-05-14T13:49:13;3.83;;;2.00;;
41739;SDS011;27422;52.444;13.300;2023-05-14T13:51:39;4.13;;;2.17;;
41739;SDS011;27422;52.444;13.300;2023-05-14T13:54:04;4.82;;;2.17;;
41739;SDS011;27422;52.444;13.300;2023-05-14T13:56:30;4.03;;;2.00;;
41739;SDS011;27422;52.444;13.300;2023-05-14T13:58:55;4.10;;;2.20;;
41739;SDS011;27422;52.444;13.300;2023-05-14T14:01:20;3.70;;;1.92;;
41739;SDS011;27422;52.444;13.300;2023-05-14T14:03:47;5.25;;;2.15;;
41739;SDS011;27422;52.444;13.300;2023-05-14T14:06:12;4.53;;;2.42;;
41739;SDS011;27422;52.444;13.300;2023-05-14T14:08:38;3.95;;;2.20;;
41739;SDS011;27422;52.444;13.300;2023-05-14T14:11:03;5.05;;;2.25;;
41739;SDS011;27422;52.444;13.300;2023-05-14T14:13:28;4.85;;;2.20;;
41739;SDS011;27422;52.444;13.300;2023-05-14T14:15:54;4.05;;;2.00;;
41739;SDS011;27422;52.444;13.300;2023-05-14T14:18:19;4.38;;;2.33;;
41739;SDS011;27422;52.444;13.300;2023-05-14T14:20:45;4.38;;;2.08;;
41739;SDS011;27422;52.444;13.300;2023-05-14T14:23:10;4.20;;;2.50;;
41739;SDS011;27422;52.444;13.300;2023-05-14T14:25:36;6.40;;;2.47;;
41739;SDS011;27422;52.444;13.300;2023-05-14T14:28:01;4.82;;;2.20;;
41739;SDS011;27422;52.444;13.300;2023-05-14T14:30:26;4.20;;;2.20;;
41739;SDS011;27422;52.444;13.300;2023-05-14T14:32:52;4.18;;;2.20;;
41739;SDS011;27422;52.444;13.300;2023-05-14T14:35:18;4.80;;;2.10;;
41739;SDS011;27422;52.444;13.300;2023-05-14T14:37:44;4.65;;;2.00;;
41739;SDS011;27422;52.444;13.300;2023-05-14T14:40:13;4.18;;;2.05;;
41739;SDS011;27422;52.444;13.300;2023-05-14T14:42:39;4.20;;;2.10;;
41739;SDS011;27422;52.444;13.300;2023-05-14T14:45:04;4.60;;;2.03;;
41739;SDS011;27422;52.444;13.300;2023-05-14T14:47:30;4.30;;;2.15;;